sensor_id;sensor_type;location;lat;lon;timestamp;pressure;altitude;pressure_sealevel;temperature;humidity
68628;BME280;55611;48.602;9.490;2023-04-03T00:01:24;97550;;;7.1;59.5
68628;BME280;55611;48.602;9.490;2023-04-03T00:03:55;97550;;;7;59.5
68628;BME280;55611;48.602;9.490;2023-04-03T00:06:25;97550;;;7.1;59.5
68628;BME280;55611;48.602;9.490;2023-04-03T00:08:56;97550;;;7.1;59.5
68628;BME280;55611;48.602;9.490;2023-04-03T00:11:26;97550;;;7.1;59.5
68628;BME280;55611;48.602;9.490;2023-04-03T00:13:57;97560;;;7.1;59.5
68628;BME280;55611;48.602;9.490;2023-04-03T00:18:58;97550;;;7.1;59.5
68628;BME280;55611;48.602;9.490;2023-04-03T00:21:28;97550;;;6.9;59.5
68628;BME280;55611;48.602;9.490;2023-04-03T00:23:59;97550;;;6.9;59.5
68628;BME280;55611;48.602;9.490;2023-04-03T00:26:29;97550;;;6.9;59
68628;BME280;55611;48.602;9.490;2023-04-03T00:39:13;97550;;;6.7;59.5
68628;BME280;55611;48.602;9.490;2023-04-03T00:41:43;97550;;;6.7;59.5
68628;BME280;55611;48.602;9.490;2023-04-03T00:46:32;97560;;;6.7;59.5
68628;BME280;55611;48.602;9.490;2023-04-03T00:49:03;97550;;;6.7;59.5
68628;BME280;55611;48.602;9.490;2023-04-03T00:51:33;97550;;;6.7;59.5
68628;BME280;55611;48.602;9.490;2023-04-03T00:54:05;97550;;;6.7;59.5
68628;BME280;55611;48.602;9.490;2023-04-03T00:56:34;97550;;;6.6;59.5
68628;BME280;55611;48.602;9.490;2023-04-03T00:59:06;97550;;;6.6;59.5
68628;BME280;55611;48.602;9.490;2023-04-03T01:01:35;97560;;;6.6;60
68628;BME280;55611;48.602;9.490;2023-04-03T01:04:24;97560;;;6.7;59.5
68628;BME280;55611;48.602;9.490;2023-04-03T01:06:37;97560;;;6.7;59.5
68628;BME280;55611;48.602;9.490;2023-04-03T01:09:07;97560;;;6.6;60
68628;BME280;55611;48.602;9.490;2023-04-03T01:11:37;97560;;;6.6;60
68628;BME280;55611;48.602;9.490;2023-04-03T01:14:08;97560;;;6.6;60
68628;BME280;55611;48.602;9.490;2023-04-03T01:16:38;97570;;;6.6;60
68628;BME280;55611;48.602;9.490;2023-04-03T01:19:11;97560;;;6.6;60
68628;BME280;55611;48.602;9.490;2023-04-03T01:21:44;97560;;;6.6;60
68628;BME280;55611;48.602;9.490;2023-04-03T01:24:12;97570;;;6.6;60
68628;BME280;55611;48.602;9.490;2023-04-03T01:26:40;97560;;;6.6;60
68628;BME280;55611;48.602;9.490;2023-04-03T01:29:11;97560;;;6.6;59.5
68628;BME280;55611;48.602;9.490;2023-04-03T01:31:44;97560;;;6.7;59.5
68628;BME280;55611;48.602;9.490;2023-04-03T01:34:12;97560;;;6.7;59.5
68628;BME280;55611;48.602;9.490;2023-04-03T01:36:42;97560;;;6.7;59.5
68628;BME280;55611;48.602;9.490;2023-04-03T01:39:13;97570;;;6.7;59.5
68628;BME280;55611;48.602;9.490;2023-04-03T01:41:44;97570;;;6.7;59.5
68628;BME280;55611;48.602;9.490;2023-04-03T01:44:14;97560;;;6.7;60
68628;BME280;55611;48.602;9.490;2023-04-03T01:46:45;97560;;;6.8;59.5
68628;BME280;55611;48.602;9.490;2023-04-03T01:49:15;97560;;;6.8;59.5
68628;BME280;55611;48.602;9.490;2023-04-03T01:51:46;97560;;;6.7;59.5
68628;BME280;55611;48.602;9.490;2023-04-03T01:54:16;97560;;;6.8;59.5
68628;BME280;55611;48.602;9.490;2023-04-03T01:56:47;97560;;;6.8;59.5
68628;BME280;55611;48.602;9.490;2023-04-03T01:59:17;97560;;;6.8;59.5
68628;BME280;55611;48.602;9.490;2023-04-03T02:01:48;97560;;;6.7;59.5
68628;BME280;55611;48.602;9.490;2023-04-03T02:04:18;97570;;;6.7;59.5
68628;BME280;55611;48.602;9.490;2023-04-03T02:06:49;97570;;;6.7;59.5
68628;BME280;55611;48.602;9.490;2023-04-03T02:09:19;97560;;;6.7;59.5
68628;BME280;55611;48.602;9.490;2023-04-03T02:11:50;97570;;;6.7;59.5
68628;BME280;55611;48.602;9.490;2023-04-03T02:14:20;97570;;;6.7;59.5
68628;BME280;55611;48.602;9.490;2023-04-03T02:16:51;97570;;;6.6;59.5
68628;BME280;55611;48.602;9.490;2023-04-03T02:19:21;97570;;;6.6;59.5
68628;BME280;55611;48.602;9.490;2023-04-03T02:21:52;97570;;;6.7;59.5
68628;BME280;55611;48.602;9.490;2023-04-03T02:24:22;97570;;;6.7;59.5
68628;BME280;55611;48.602;9.490;2023-04-03T02:26:53;97570;;;6.6;59.5
68628;BME280;55611;48.602;9.490;2023-04-03T02:29:23;97570;;;6.6;59.5
68628;BME280;55611;48.602;9.490;2023-04-03T02:31:54;97570;;;6.6;59.5
68628;BME280;55611;48.602;9.490;2023-04-03T02:34:24;97570;;;6.5;59.5
68628;BME280;55611;48.602;9.490;2023-04-03T02:36:55;97570;;;6.6;59.5
68628;BME280;55611;48.602;9.490;2023-04-03T02:39:25;97570;;;6.6;59.5
68628;BME280;55611;48.602;9.490;2023-04-03T02:41:56;97570;;;6.6;59.5
68628;BME280;55611;48.602;9.490;2023-04-03T02:44:26;97570;;;6.5;59.5
68628;BME280;55611;48.602;9.490;2023-04-03T02:46:57;97570;;;6.6;59.5
68628;BME280;55611;48.602;9.490;2023-04-03T02:49:27;97580;;;6.7;59.5
68628;BME280;55611;48.602;9.490;2023-04-03T02:51:58;97580;;;6.7;59.5
68628;BME280;55611;48.602;9.490;2023-04-03T02:54:28;97570;;;6.7;59.5
68628;BME280;55611;48.602;9.490;2023-04-03T02:56:59;97570;;;6.7;59.5
68628;BME280;55611;48.602;9.490;2023-04-03T02:59:29;97580;;;6.7;59.5
68628;BME280;55611;48.602;9.490;2023-04-03T03:02:00;97580;;;6.7;59.5
68628;BME280;55611;48.602;9.490;2023-04-03T03:04:30;97580;;;6.8;59.5
68628;BME280;55611;48.602;9.490;2023-04-03T03:07:01;97580;;;6.8;59.5
68628;BME280;55611;48.602;9.490;2023-04-03T03:09:31;97570;;;6.7;59.5
68628;BME280;55611;48.602;9.490;2023-04-03T03:12:02;97580;;;6.7;59.5
68628;BME280;55611;48.602;9.490;2023-04-03T03:14:33;97570;;;6.7;59.5
68628;BME280;55611;48.602;9.490;2023-04-03T03:17:03;97570;;;6.7;59.5
68628;BME280;55611;48.602;9.490;2023-04-03T03:19:34;97570;;;6.7;59.5
68628;BME280;55611;48.602;9.490;2023-04-03T03:22:04;97580;;;6.6;60
68628;BME280;55611;48.602;9.490;2023-04-03T03:24:35;97580;;;6.6;60
68628;BME280;55611;48.602;9.490;2023-04-03T03:27:05;97570;;;6.7;60
68628;BME280;55611;48.602;9.490;2023-04-03T03:29:36;97580;;;6.6;59.5
68628;BME280;55611;48.602;9.490;2023-04-03T03:32:06;97580;;;6.6;60
68628;BME280;55611;48.602;9.490;2023-04-03T03:34:37;97570;;;6.5;60
68628;BME280;55611;48.602;9.490;2023-04-03T03:37:07;97570;;;6.4;60
68628;BME280;55611;48.602;9.490;2023-04-03T03:39:38;97570;;;6.4;60
68628;BME280;55611;48.602;9.490;2023-04-03T03:42:08;97560;;;6.4;60
68628;BME280;55611;48.602;9.490;2023-04-03T03:44:39;97570;;;6.3;60
68628;BME280;55611;48.602;9.490;2023-04-03T03:47:09;97570;;;6.4;60
68628;BME280;55611;48.602;9.490;2023-04-03T03:49:40;97570;;;6.4;60
68628;BME280;55611;48.602;9.490;2023-04-03T03:52:10;97560;;;6.5;60
68628;BME280;55611;48.602;9.490;2023-04-03T03:54:41;97570;;;6.5;60
68628;BME280;55611;48.602;9.490;2023-04-03T03:57:11;97570;;;6.4;60
68628;BME280;55611;48.602;9.490;2023-04-03T03:59:42;97570;;;6.4;60
68628;BME280;55611;48.602;9.490;2023-04-03T04:02:12;97570;;;6.5;60
68628;BME280;55611;48.602;9.490;2023-04-03T04:04:43;97570;;;6.5;60
68628;BME280;55611;48.602;9.490;2023-04-03T04:07:13;97570;;;6.5;60
68628;BME280;55611;48.602;9.490;2023-04-03T04:09:44;97570;;;6.5;59.5
68628;BME280;55611;48.602;9.490;2023-04-03T04:12:14;97570;;;6.6;59.5
68628;BME280;55611;48.602;9.490;2023-04-03T04:14:45;97570;;;6.5;59.5
68628;BME280;55611;48.602;9.490;2023-04-03T04:17:15;97570;;;6.5;59.5
68628;BME280;55611;48.602;9.490;2023-04-03T04:19:46;97560;;;6.4;60
68628;BME280;55611;48.602;9.490;2023-04-03T04:22:16;97570;;;6.5;60
68628;BME280;55611;48.602;9.490;2023-04-03T04:24:47;97560;;;6.5;59.5
68628;BME280;55611;48.602;9.490;2023-04-03T04:27:17;97560;;;6.6;59.5
68628;BME280;55611;48.602;9.490;2023-04-03T04:29:48;97570;;;6.6;59.5
68628;BME280;55611;48.602;9.490;2023-04-03T04:32:19;97560;;;6.5;59.5
68628;BME280;55611;48.602;9.490;2023-04-03T04:34:49;97570;;;6.5;59.5
68628;BME280;55611;48.602;9.490;2023-04-03T04:37:20;97570;;;6.6;59.5
68628;BME280;55611;48.602;9.490;2023-04-03T04:39:50;97570;;;6.6;59.5
68628;BME280;55611;48.602;9.490;2023-04-03T04:42:21;97570;;;6.6;59.5
68628;BME280;55611;48.602;9.490;2023-04-03T04:44:51;97560;;;6.7;59.5
68628;BME280;55611;48.602;9.490;2023-04-03T04:49:52;97570;;;6.7;59.5
68628;BME280;55611;48.602;9.490;2023-04-03T04:52:23;97570;;;6.7;59.5
68628;BME280;55611;48.602;9.490;2023-04-03T04:54:53;97570;;;6.8;59.5
68628;BME280;55611;48.602;9.490;2023-04-03T04:57:24;97570;;;6.8;59.5
68628;BME280;55611;48.602;9.490;2023-04-03T04:59:54;97570;;;6.7;59.5
68628;BME280;55611;48.602;9.490;2023-04-03T05:02:25;97570;;;6.7;59.5
68628;BME280;55611;48.602;9.490;2023-04-03T05:04:55;97570;;;6.7;59.5
68628;BME280;55611;48.602;9.490;2023-04-03T05:07:26;97570;;;6.6;59.5
68628;BME280;55611;48.602;9.490;2023-04-03T05:09:56;97580;;;6.6;59.5
68628;BME280;55611;48.602;9.490;2023-04-03T05:12:27;97580;;;6.6;59.5
68628;BME280;55611;48.602;9.490;2023-04-03T05:14:57;97580;;;6.7;59.5
68628;BME280;55611;48.602;9.490;2023-04-03T05:17:28;97580;;;6.7;59.5
68628;BME280;55611;48.602;9.490;2023-04-03T05:19:58;97580;;;6.7;59.5
68628;BME280;55611;48.602;9.490;2023-04-03T05:22:29;97580;;;6.6;59.5
68628;BME280;55611;48.602;9.490;2023-04-03T05:24:59;97580;;;6.7;59.5
68628;BME280;55611;48.602;9.490;2023-04-03T05:27:30;97590;;;6.6;60
68628;BME280;55611;48.602;9.490;2023-04-03T05:30:01;97580;;;6.6;60
68628;BME280;55611;48.602;9.490;2023-04-03T05:32:31;97590;;;6.6;59.5
68628;BME280;55611;48.602;9.490;2023-04-03T05:35:02;97590;;;6.6;59.5
68628;BME280;55611;48.602;9.490;2023-04-03T05:37:32;97590;;;6.7;60
68628;BME280;55611;48.602;9.490;2023-04-03T05:40:03;97600;;;6.6;60
68628;BME280;55611;48.602;9.490;2023-04-03T05:42:33;97590;;;6.6;60
68628;BME280;55611;48.602;9.490;2023-04-03T05:45:04;97590;;;6.7;60
68628;BME280;55611;48.602;9.490;2023-04-03T05:47:34;97600;;;6.5;60
68628;BME280;55611;48.602;9.490;2023-04-03T05:50:05;97600;;;6.5;60
68628;BME280;55611;48.602;9.490;2023-04-03T05:52:36;97610;;;6.4;60
68628;BME280;55611;48.602;9.490;2023-04-03T05:55:06;97610;;;6.3;60
68628;BME280;55611;48.602;9.490;2023-04-03T05:57:36;97610;;;6.4;60
68628;BME280;55611;48.602;9.490;2023-04-03T06:00:07;97610;;;6.4;60
68628;BME280;55611;48.602;9.490;2023-04-03T06:02:37;97610;;;6.3;60
68628;BME280;55611;48.602;9.490;2023-04-03T06:05:08;97610;;;6.4;60
68628;BME280;55611;48.602;9.490;2023-04-03T06:07:38;97610;;;6.6;60
68628;BME280;55611;48.602;9.490;2023-04-03T06:10:10;97610;;;6.6;60
68628;BME280;55611;48.602;9.490;2023-04-03T06:12:39;97620;;;6.4;60
68628;BME280;55611;48.602;9.490;2023-04-03T06:15:10;97620;;;6.4;60
68628;BME280;55611;48.602;9.490;2023-04-03T06:17:40;97620;;;6.3;60
68628;BME280;55611;48.602;9.490;2023-04-03T06:20:11;97620;;;6.2;60
68628;BME280;55611;48.602;9.490;2023-04-03T06:22:41;97620;;;6.3;60
68628;BME280;55611;48.602;9.490;2023-04-03T06:25:12;97630;;;6.3;60
68628;BME280;55611;48.602;9.490;2023-04-03T06:27:42;97630;;;6.4;60
68628;BME280;55611;48.602;9.490;2023-04-03T06:30:13;97630;;;6.4;60
68628;BME280;55611;48.602;9.490;2023-04-03T06:32:43;97630;;;6.5;60
68628;BME280;55611;48.602;9.490;2023-04-03T06:35:14;97630;;;6.5;60
68628;BME280;55611;48.602;9.490;2023-04-03T06:37:44;97620;;;6.6;60
68628;BME280;55611;48.602;9.490;2023-04-03T06:40:17;97630;;;6.7;60
68628;BME280;55611;48.602;9.490;2023-04-03T06:42:46;97630;;;6.8;60
68628;BME280;55611;48.602;9.490;2023-04-03T06:45:16;97630;;;6.9;60
68628;BME280;55611;48.602;9.490;2023-04-03T06:47:46;97630;;;7;60
68628;BME280;55611;48.602;9.490;2023-04-03T06:50:17;97640;;;7.1;60
68628;BME280;55611;48.602;9.490;2023-04-03T06:52:47;97640;;;6.9;60
68628;BME280;55611;48.602;9.490;2023-04-03T06:55:18;97630;;;7;60
68628;BME280;55611;48.602;9.490;2023-04-03T06:57:49;97640;;;7;60
68628;BME280;55611;48.602;9.490;2023-04-03T07:00:19;97640;;;6.8;60
68628;BME280;55611;48.602;9.490;2023-04-03T07:02:50;97640;;;7;60
68628;BME280;55611;48.602;9.490;2023-04-03T07:05:20;97640;;;7;60
68628;BME280;55611;48.602;9.490;2023-04-03T07:07:50;97640;;;7.1;60
68628;BME280;55611;48.602;9.490;2023-04-03T07:10:21;97640;;;7.1;60
68628;BME280;55611;48.602;9.490;2023-04-03T07:12:51;97640;;;7.1;60
68628;BME280;55611;48.602;9.490;2023-04-03T07:15:22;97650;;;7.2;60
68628;BME280;55611;48.602;9.490;2023-04-03T07:17:52;97640;;;7.2;60
68628;BME280;55611;48.602;9.490;2023-04-03T07:20:23;97640;;;7.3;60
68628;BME280;55611;48.602;9.490;2023-04-03T07:22:54;97640;;;7.2;60
68628;BME280;55611;48.602;9.490;2023-04-03T07:25:24;97640;;;7.4;60
68628;BME280;55611;48.602;9.490;2023-04-03T07:27:55;97640;;;7.3;60
68628;BME280;55611;48.602;9.490;2023-04-03T07:30:25;97650;;;7.3;60
68628;BME280;55611;48.602;9.490;2023-04-03T07:32:56;97640;;;7.4;60
68628;BME280;55611;48.602;9.490;2023-04-03T07:35:26;97650;;;7.5;60
68628;BME280;55611;48.602;9.490;2023-04-03T07:37:57;97650;;;7.7;60
68628;BME280;55611;48.602;9.490;2023-04-03T07:40:27;97660;;;7.4;60.5
68628;BME280;55611;48.602;9.490;2023-04-03T07:42:58;97660;;;7.4;60.5
68628;BME280;55611;48.602;9.490;2023-04-03T07:45:28;97660;;;7.5;60.5
68628;BME280;55611;48.602;9.490;2023-04-03T07:47:59;97660;;;7.6;60.5
68628;BME280;55611;48.602;9.490;2023-04-03T07:50:29;97660;;;7.7;60
68628;BME280;55611;48.602;9.490;2023-04-03T07:53:00;97660;;;7.7;60
68628;BME280;55611;48.602;9.490;2023-04-03T07:55:31;97660;;;7.8;60
68628;BME280;55611;48.602;9.490;2023-04-03T07:58:01;97660;;;7.8;60
68628;BME280;55611;48.602;9.490;2023-04-03T08:00:31;97660;;;7.9;60
68628;BME280;55611;48.602;9.490;2023-04-03T08:03:02;97670;;;7.8;60
68628;BME280;55611;48.602;9.490;2023-04-03T08:05:36;97670;;;7.9;60
68628;BME280;55611;48.602;9.490;2023-04-03T08:08:04;97660;;;8;60
68628;BME280;55611;48.602;9.490;2023-04-03T08:10:33;97670;;;8;60
68628;BME280;55611;48.602;9.490;2023-04-03T08:13:06;97660;;;8.2;60
68628;BME280;55611;48.602;9.490;2023-04-03T08:15:35;97660;;;8.3;60
68628;BME280;55611;48.602;9.490;2023-04-03T08:18:05;97670;;;8.3;60
68628;BME280;55611;48.602;9.490;2023-04-03T08:20:35;97660;;;8.3;60
68628;BME280;55611;48.602;9.490;2023-04-03T08:23:06;97660;;;8.3;60
68628;BME280;55611;48.602;9.490;2023-04-03T08:25:37;97670;;;8.4;60
68628;BME280;55611;48.602;9.490;2023-04-03T08:28:07;97670;;;8.5;60
68628;BME280;55611;48.602;9.490;2023-04-03T08:30:39;97670;;;8.5;60
68628;BME280;55611;48.602;9.490;2023-04-03T08:33:08;97670;;;8.6;60
68628;BME280;55611;48.602;9.490;2023-04-03T08:35:39;97670;;;8.7;60
68628;BME280;55611;48.602;9.490;2023-04-03T08:38:09;97670;;;8.5;60
68628;BME280;55611;48.602;9.490;2023-04-03T08:40:39;97670;;;8.5;60
68628;BME280;55611;48.602;9.490;2023-04-03T08:43:23;97670;;;8.7;60
68628;BME280;55611;48.602;9.490;2023-04-03T08:45:43;97670;;;8.8;60
68628;BME280;55611;48.602;9.490;2023-04-03T08:48:19;97670;;;8.8;60
68628;BME280;55611;48.602;9.490;2023-04-03T08:50:43;97680;;;8.9;60
68628;BME280;55611;48.602;9.490;2023-04-03T08:53:14;97670;;;8.9;60
68628;BME280;55611;48.602;9.490;2023-04-03T08:55:44;97680;;;8.8;60
68628;BME280;55611;48.602;9.490;2023-04-03T08:58:15;97680;;;8.7;60
68628;BME280;55611;48.602;9.490;2023-04-03T09:00:45;97680;;;8.5;60
68628;BME280;55611;48.602;9.490;2023-04-03T09:03:15;97680;;;8.5;60
68628;BME280;55611;48.602;9.490;2023-04-03T09:05:47;97680;;;8.5;60
68628;BME280;55611;48.602;9.490;2023-04-03T09:08:31;97680;;;8.6;59.5
68628;BME280;55611;48.602;9.490;2023-04-03T09:10:46;97680;;;8.6;59.5
68628;BME280;55611;48.602;9.490;2023-04-03T09:13:22;97690;;;8.5;59.5
68628;BME280;55611;48.602;9.490;2023-04-03T09:15:47;97680;;;8.3;59.5
68628;BME280;55611;48.602;9.490;2023-04-03T09:18:21;97680;;;8.4;59.5
68628;BME280;55611;48.602;9.490;2023-04-03T09:20:51;97690;;;8.4;59.5
68628;BME280;55611;48.602;9.490;2023-04-03T09:23:22;97680;;;8.5;59.5
68628;BME280;55611;48.602;9.490;2023-04-03T09:25:49;97680;;;8.7;59.5
68628;BME280;55611;48.602;9.490;2023-04-03T09:28:19;97680;;;8.7;59.5
68628;BME280;55611;48.602;9.490;2023-04-03T09:30:50;97680;;;8.9;59.5
68628;BME280;55611;48.602;9.490;2023-04-03T09:33:20;97680;;;8.9;59.5
68628;BME280;55611;48.602;9.490;2023-04-03T09:35:51;97680;;;8.8;59.5
68628;BME280;55611;48.602;9.490;2023-04-03T09:38:22;97690;;;8.6;60
68628;BME280;55611;48.602;9.490;2023-04-03T09:41:13;97680;;;8.5;60
68628;BME280;55611;48.602;9.490;2023-04-03T09:43:27;97670;;;8.6;60
68628;BME280;55611;48.602;9.490;2023-04-03T09:45:53;97680;;;8.7;60
68628;BME280;55611;48.602;9.490;2023-04-03T09:48:24;97680;;;8.6;60
68628;BME280;55611;48.602;9.490;2023-04-03T09:50:55;97680;;;8.7;60
68628;BME280;55611;48.602;9.490;2023-04-03T09:53:26;97680;;;8.7;60
68628;BME280;55611;48.602;9.490;2023-04-03T09:55:55;97660;;;8.8;60
68628;BME280;55611;48.602;9.490;2023-04-03T09:58:27;97670;;;9;60
68628;BME280;55611;48.602;9.490;2023-04-03T10:00:57;97680;;;9;59.5
68628;BME280;55611;48.602;9.490;2023-04-03T10:03:28;97680;;;8.8;59.5
68628;BME280;55611;48.602;9.490;2023-04-03T10:05:57;97680;;;8.7;59.5
68628;BME280;55611;48.602;9.490;2023-04-03T10:08:29;97670;;;8.6;59.5
68628;BME280;55611;48.602;9.490;2023-04-03T10:11:14;97680;;;8.6;59.5
68628;BME280;55611;48.602;9.490;2023-04-03T10:13:29;97680;;;8.5;59.5
68628;BME280;55611;48.602;9.490;2023-04-03T10:16:01;97680;;;8.5;59.5
68628;BME280;55611;48.602;9.490;2023-04-03T10:18:33;97670;;;8.6;59.5
68628;BME280;55611;48.602;9.490;2023-04-03T10:21:05;97670;;;8.7;59
68628;BME280;55611;48.602;9.490;2023-04-03T10:23:33;97670;;;8.9;59
68628;BME280;55611;48.602;9.490;2023-04-03T10:26:12;97670;;;9.1;59
68628;BME280;55611;48.602;9.490;2023-04-03T10:28:48;97670;;;9.1;59
68628;BME280;55611;48.602;9.490;2023-04-03T10:31:09;97660;;;9;59
68628;BME280;55611;48.602;9.490;2023-04-03T10:33:36;97670;;;8.9;59
68628;BME280;55611;48.602;9.490;2023-04-03T10:36:21;97670;;;8.9;59
68628;BME280;55611;48.602;9.490;2023-04-03T10:39:08;97670;;;8.9;58.5
68628;BME280;55611;48.602;9.490;2023-04-03T10:41:07;97670;;;8.7;58.5
68628;BME280;55611;48.602;9.490;2023-04-03T10:43:38;97670;;;8.7;58.5
68628;BME280;55611;48.602;9.490;2023-04-03T10:46:08;97670;;;8.6;58.5
68628;BME280;55611;48.602;9.490;2023-04-03T10:48:46;97670;;;8.8;58.5
68628;BME280;55611;48.602;9.490;2023-04-03T10:51:16;97660;;;9;58.5
68628;BME280;55611;48.602;9.490;2023-04-03T10:56:16;97670;;;9.3;59
68628;BME280;55611;48.602;9.490;2023-04-03T10:58:39;97670;;;9.5;59
68628;BME280;55611;48.602;9.490;2023-04-03T11:01:09;97670;;;9.4;59
68628;BME280;55611;48.602;9.490;2023-04-03T11:03:40;97660;;;9.4;59
68628;BME280;55611;48.602;9.490;2023-04-03T11:06:11;97660;;;9.3;59
68628;BME280;55611;48.602;9.490;2023-04-03T11:08:44;97660;;;9.4;59
68628;BME280;55611;48.602;9.490;2023-04-03T11:11:13;97660;;;9.6;59
68628;BME280;55611;48.602;9.490;2023-04-03T11:13:43;97660;;;9.6;59
68628;BME280;55611;48.602;9.490;2023-04-03T11:18:47;97660;;;9.5;58.5
68628;BME280;55611;48.602;9.490;2023-04-03T11:21:16;97660;;;9.4;58.5
68628;BME280;55611;48.602;9.490;2023-04-03T11:23:43;97670;;;9.4;58.5
68628;BME280;55611;48.602;9.490;2023-04-03T11:26:15;97660;;;9.3;58.5
68628;BME280;55611;48.602;9.490;2023-04-03T11:28:44;97660;;;9.2;59
68628;BME280;55611;48.602;9.490;2023-04-03T11:31:19;97640;;;9.5;59
68628;BME280;55611;48.602;9.490;2023-04-03T11:34:20;97650;;;9.8;58.5
68628;BME280;55611;48.602;9.490;2023-04-03T11:36:32;97650;;;9.5;59
68628;BME280;55611;48.602;9.490;2023-04-03T11:38:47;97650;;;9.4;59
68628;BME280;55611;48.602;9.490;2023-04-03T11:41:17;97650;;;9.3;59
68628;BME280;55611;48.602;9.490;2023-04-03T11:43:55;97660;;;9.5;59
68628;BME280;55611;48.602;9.490;2023-04-03T11:46:18;97650;;;9.2;59
68628;BME280;55611;48.602;9.490;2023-04-03T11:51:50;97640;;;9.3;58.5
68628;BME280;55611;48.602;9.490;2023-04-03T11:53:49;97650;;;9.4;58.5
68628;BME280;55611;48.602;9.490;2023-04-03T11:56:27;97650;;;9.3;58.5
68628;BME280;55611;48.602;9.490;2023-04-03T12:01:53;97650;;;9.4;58.5
68628;BME280;55611;48.602;9.490;2023-04-03T12:03:56;97640;;;9.4;58.5
68628;BME280;55611;48.602;9.490;2023-04-03T12:06:42;97640;;;9.5;58.5
68628;BME280;55611;48.602;9.490;2023-04-03T12:08:53;97640;;;9.6;58.5
68628;BME280;55611;48.602;9.490;2023-04-03T12:11:24;97640;;;9.6;58.5
68628;BME280;55611;48.602;9.490;2023-04-03T12:16:42;97640;;;9.7;58
68628;BME280;55611;48.602;9.490;2023-04-03T12:18:56;97640;;;9.8;58.5
68628;BME280;55611;48.602;9.490;2023-04-03T12:22:04;97640;;;9.6;58.5
68628;BME280;55611;48.602;9.490;2023-04-03T12:24:28;97630;;;9.4;58.5
68628;BME280;55611;48.602;9.490;2023-04-03T12:26:27;97640;;;9.4;58
68628;BME280;55611;48.602;9.490;2023-04-03T12:28:56;97630;;;9.3;58
68628;BME280;55611;48.602;9.490;2023-04-03T12:31:35;97630;;;9.3;58
68628;BME280;55611;48.602;9.490;2023-04-03T12:34:04;97630;;;9.5;58
68628;BME280;55611;48.602;9.490;2023-04-03T12:36:32;97630;;;9.6;58
68628;BME280;55611;48.602;9.490;2023-04-03T12:39:09;97630;;;9.7;58
68628;BME280;55611;48.602;9.490;2023-04-03T12:41:32;97630;;;9.8;58
68628;BME280;55611;48.602;9.490;2023-04-03T12:44:04;97630;;;9.9;58
68628;BME280;55611;48.602;9.490;2023-04-03T12:46:35;97620;;;10;58
68628;BME280;55611;48.602;9.490;2023-04-03T12:49:01;97620;;;10.1;58
68628;BME280;55611;48.602;9.490;2023-04-03T12:51:37;97620;;;9.9;58
68628;BME280;55611;48.602;9.490;2023-04-03T12:54:03;97620;;;9.7;58
68628;BME280;55611;48.602;9.490;2023-04-03T12:56:32;97620;;;9.5;58
68628;BME280;55611;48.602;9.490;2023-04-03T12:59:34;97620;;;9.5;58
68628;BME280;55611;48.602;9.490;2023-04-03T13:01:33;97620;;;9.5;58
68628;BME280;55611;48.602;9.490;2023-04-03T13:04:04;97620;;;9.4;58
68628;BME280;55611;48.602;9.490;2023-04-03T13:06:39;97630;;;9.4;58
68628;BME280;55611;48.602;9.490;2023-04-03T13:09:05;97620;;;9.4;58
68628;BME280;55611;48.602;9.490;2023-04-03T13:11:37;97620;;;9.4;58
68628;BME280;55611;48.602;9.490;2023-04-03T13:14:14;97610;;;9.4;58
68628;BME280;55611;48.602;9.490;2023-04-03T13:16:36;97620;;;9.5;58
68628;BME280;55611;48.602;9.490;2023-04-03T13:19:14;97610;;;9.4;58
68628;BME280;55611;48.602;9.490;2023-04-03T13:21:37;97610;;;9.8;58
68628;BME280;55611;48.602;9.490;2023-04-03T13:24:08;97620;;;9.9;58
68628;BME280;55611;48.602;9.490;2023-04-03T13:26:38;97610;;;9.9;58
68628;BME280;55611;48.602;9.490;2023-04-03T13:29:25;97610;;;9.9;58
68628;BME280;55611;48.602;9.490;2023-04-03T13:31:39;97610;;;10.1;58
68628;BME280;55611;48.602;9.490;2023-04-03T13:34:11;97610;;;10.2;58
68628;BME280;55611;48.602;9.490;2023-04-03T13:36:43;97610;;;10.3;58
68628;BME280;55611;48.602;9.490;2023-04-03T13:39:28;97610;;;10.2;58
68628;BME280;55611;48.602;9.490;2023-04-03T13:41:43;97600;;;10.1;58
68628;BME280;55611;48.602;9.490;2023-04-03T13:44:16;97600;;;10.1;58
68628;BME280;55611;48.602;9.490;2023-04-03T13:46:43;97600;;;10.1;58
68628;BME280;55611;48.602;9.490;2023-04-03T13:49:21;97600;;;10.1;58
68628;BME280;55611;48.602;9.490;2023-04-03T13:51:43;97600;;;10;57.5
68628;BME280;55611;48.602;9.490;2023-04-03T13:54:23;97600;;;10;57.5
68628;BME280;55611;48.602;9.490;2023-04-03T13:56:45;97600;;;10;57.5
68628;BME280;55611;48.602;9.490;2023-04-03T13:59:23;97600;;;9.9;57.5
68628;BME280;55611;48.602;9.490;2023-04-03T14:02:15;97600;;;9.9;57.5
68628;BME280;55611;48.602;9.490;2023-04-03T14:04:17;97600;;;9.8;57.5
68628;BME280;55611;48.602;9.490;2023-04-03T14:06:47;97600;;;9.9;57.5
68628;BME280;55611;48.602;9.490;2023-04-03T14:09:18;97600;;;9.9;57.5
68628;BME280;55611;48.602;9.490;2023-04-03T14:11:48;97590;;;10;57.5
68628;BME280;55611;48.602;9.490;2023-04-03T14:14:24;97590;;;9.9;57.5
68628;BME280;55611;48.602;9.490;2023-04-03T14:16:52;97590;;;9.8;57.5
68628;BME280;55611;48.602;9.490;2023-04-03T14:19:21;97590;;;10;57.5
68628;BME280;55611;48.602;9.490;2023-04-03T14:21:50;97590;;;10.1;57.5
68628;BME280;55611;48.602;9.490;2023-04-03T14:24:20;97590;;;10.1;57.5
68628;BME280;55611;48.602;9.490;2023-04-03T14:26:52;97590;;;10.1;57.5
68628;BME280;55611;48.602;9.490;2023-04-03T14:29:21;97590;;;10;57.5
68628;BME280;55611;48.602;9.490;2023-04-03T14:31:52;97580;;;10;57.5
68628;BME280;55611;48.602;9.490;2023-04-03T14:34:22;97580;;;9.9;57.5
68628;BME280;55611;48.602;9.490;2023-04-03T14:36:53;97590;;;9.8;57.5
68628;BME280;55611;48.602;9.490;2023-04-03T14:39:23;97580;;;9.6;57.5
68628;BME280;55611;48.602;9.490;2023-04-03T14:41:54;97580;;;9.6;57.5
68628;BME280;55611;48.602;9.490;2023-04-03T14:44:24;97580;;;9.6;57.5
68628;BME280;55611;48.602;9.490;2023-04-03T14:46:55;97580;;;9.5;57.5
68628;BME280;55611;48.602;9.490;2023-04-03T14:49:26;97570;;;9.7;57.5
68628;BME280;55611;48.602;9.490;2023-04-03T14:51:57;97580;;;9.8;57.5
68628;BME280;55611;48.602;9.490;2023-04-03T14:54:26;97580;;;9.8;57.5
68628;BME280;55611;48.602;9.490;2023-04-03T14:56:57;97580;;;9.9;57.5
68628;BME280;55611;48.602;9.490;2023-04-03T14:59:28;97580;;;9.9;57.5
68628;BME280;55611;48.602;9.490;2023-04-03T15:01:58;97570;;;9.8;57.5
68628;BME280;55611;48.602;9.490;2023-04-03T15:04:28;97570;;;9.7;57.5
68628;BME280;55611;48.602;9.490;2023-04-03T15:06:59;97570;;;9.8;57.5
68628;BME280;55611;48.602;9.490;2023-04-03T15:09:29;97570;;;10.1;57.5